createdAt,value
2023-04-03T00:00:47.332Z,6.93
2023-04-03T00:05:50.047Z,8.50
2023-04-03T00:10:52.580Z,7.27
2023-04-03T00:15:54.955Z,7.00
2023-04-03T00:20:57.406Z,6.63
2023-04-03T00:25:59.763Z,7.87
2023-04-03T00:31:02.186Z,9.17
2023-04-03T00:36:11.816Z,7.93
2023-04-03T00:46:35.106Z,7.83
2023-04-03T00:51:40.745Z,7.10
2023-04-03T00:56:43.128Z,7.13
2023-04-03T01:01:46.064Z,7.40
2023-04-03T01:06:48.569Z,6.93
2023-04-03T01:11:51.066Z,7.33
2023-04-03T01:16:56.740Z,7.43
2023-04-03T01:22:13.034Z,8.07
2023-04-03T01:27:15.418Z,7.53
2023-04-03T01:32:17.947Z,6.47
2023-04-03T01:37:20.411Z,8.73
2023-04-03T01:42:23.664Z,7.47
2023-04-03T01:47:26.225Z,7.17
2023-04-03T01:52:28.776Z,6.80
2023-04-03T01:57:31.639Z,7.37
2023-04-03T02:02:34.490Z,9.47
2023-04-03T02:07:37.024Z,9.00
2023-04-03T02:12:39.529Z,9.13
2023-04-03T02:17:41.892Z,8.43
2023-04-03T02:22:44.325Z,10.33
2023-04-03T02:27:46.611Z,8.83
2023-04-03T02:32:49.021Z,7.60
2023-04-03T02:37:51.501Z,8.93
2023-04-03T02:42:53.887Z,8.77
2023-04-03T02:47:57.379Z,7.43
2023-04-03T02:52:59.783Z,6.80
2023-04-03T02:58:02.262Z,8.17
2023-04-03T03:03:05.154Z,8.23
2023-04-03T03:08:07.713Z,8.60
2023-04-03T03:13:10.056Z,8.80
2023-04-03T03:18:12.345Z,10.70
2023-04-03T03:23:14.757Z,9.47
2023-04-03T03:28:17.118Z,7.53
2023-04-03T03:33:21.775Z,7.23
2023-04-03T03:38:28.511Z,9.00
2023-04-03T03:43:33.420Z,7.90
2023-04-03T03:48:36.041Z,8.47
2023-04-03T03:53:38.565Z,9.27
2023-04-03T03:58:44.963Z,9.77
2023-04-03T04:03:48.804Z,10.93
2023-04-03T04:08:55.790Z,11.03
2023-04-03T04:13:58.125Z,10.93
2023-04-03T04:19:03.138Z,12.63
2023-04-03T04:24:07.565Z,12.53
2023-04-03T04:29:11.477Z,11.87
2023-04-03T04:34:14.456Z,13.87
2023-04-03T04:39:16.864Z,12.97
2023-04-03T04:44:19.359Z,12.77
2023-04-03T04:49:21.844Z,10.40
2023-04-03T04:54:24.862Z,12.40
2023-04-03T04:59:28.381Z,11.53
2023-04-03T05:04:34.580Z,12.13
2023-04-03T05:09:44.565Z,11.03
2023-04-03T05:14:49.129Z,11.93
2023-04-03T05:19:52.294Z,14.10
2023-04-03T05:24:56.939Z,13.07
2023-04-03T05:30:01.092Z,13.07
2023-04-03T05:35:07.134Z,14.70
2023-04-03T05:40:10.519Z,13.83
2023-04-03T05:45:16.796Z,16.80
2023-04-03T05:50:19.478Z,16.23
2023-04-03T05:55:25.161Z,17.03
2023-04-03T06:00:29.597Z,15.70
2023-04-03T06:05:37.785Z,16.00
2023-04-03T06:10:40.568Z,15.60
2023-04-03T06:15:43.225Z,15.97
2023-04-03T06:20:45.872Z,15.50
2023-04-03T06:25:48.430Z,16.23
2023-04-03T06:30:50.846Z,15.30
2023-04-03T06:36:00.387Z,15.20
2023-04-03T06:46:05.161Z,15.93
2023-04-03T06:51:08.153Z,16.30
2023-04-03T06:56:11.087Z,14.07
2023-04-03T07:01:15.207Z,14.53
2023-04-03T07:06:19.235Z,14.63
2023-04-03T07:11:21.838Z,13.77
2023-04-03T07:16:24.246Z,13.63
2023-04-03T07:21:27.048Z,12.87
2023-04-03T07:26:29.651Z,15.13
2023-04-03T07:31:32.315Z,13.57
2023-04-03T07:36:34.862Z,14.27
2023-04-03T07:41:37.223Z,12.50
2023-04-03T07:46:40.114Z,13.50
2023-04-03T07:51:43.221Z,14.03
2023-04-03T07:56:46.490Z,13.17
2023-04-03T08:01:48.865Z,13.20
2023-04-03T08:06:51.453Z,15.17
2023-04-03T08:11:54.838Z,13.77
2023-04-03T08:16:58.017Z,14.17
2023-04-03T08:22:01.896Z,12.77
2023-04-03T08:27:05.901Z,11.70
2023-04-03T08:32:08.362Z,11.00
2023-04-03T08:37:10.894Z,12.20
2023-04-03T08:42:32.450Z,11.40
2023-04-03T08:47:48.939Z,10.57
2023-04-03T08:52:57.819Z,9.97
2023-04-03T08:58:08.126Z,10.07
2023-04-03T09:03:15.496Z,11.30
2023-04-03T09:08:31.410Z,11.23
2023-04-03T09:13:58.257Z,10.10
2023-04-03T09:19:17.269Z,9.33
2023-04-03T09:24:20.522Z,9.37
2023-04-03T09:29:24.375Z,11.07
2023-04-03T09:34:38.992Z,11.23
2023-04-03T09:39:54.840Z,11.17
2023-04-03T09:45:02.440Z,9.67
2023-04-03T09:50:15.360Z,10.30
2023-04-03T09:55:31.026Z,10.40
2023-04-03T10:00:37.269Z,10.37
2023-04-03T10:05:42.377Z,10.63
2023-04-03T10:10:50.273Z,9.57
2023-04-03T10:16:03.599Z,10.37
2023-04-03T10:21:27.485Z,11.50
2023-04-03T10:26:38.884Z,12.13
2023-04-03T10:31:56.798Z,11.80
2023-04-03T10:37:17.793Z,10.47
2023-04-03T10:42:29.541Z,11.50
2023-04-03T10:47:52.989Z,10.73
2023-04-03T10:53:07.703Z,10.03
2023-04-03T10:58:20.870Z,12.87
2023-04-03T11:03:33.356Z,10.43
2023-04-03T11:09:08.138Z,10.67
2023-04-03T11:14:23.185Z,10.53
2023-04-03T11:19:36.623Z,10.40
2023-04-03T11:24:41.366Z,10.80
2023-04-03T11:29:46.747Z,9.10
2023-04-03T11:34:55.468Z,7.97
2023-04-03T11:40:00.313Z,6.75
2023-04-03T11:45:31.278Z,7.17
2023-04-03T11:50:36.911Z,7.13
2023-04-03T11:55:45.404Z,9.00
2023-04-03T12:00:52.146Z,9.60
2023-04-03T12:06:15.734Z,11.07
2023-04-03T12:11:32.017Z,9.90
2023-04-03T12:16:40.763Z,9.07
2023-04-03T12:21:46.944Z,8.80
2023-04-03T12:27:19.652Z,8.80
2023-04-03T12:32:37.903Z,10.20
2023-04-03T12:37:59.579Z,9.93
2023-04-03T12:43:20.186Z,9.63
2023-04-03T12:48:27.393Z,9.97
2023-04-03T12:53:37.433Z,10.13
2023-04-03T12:58:39.839Z,12.13
2023-04-03T13:03:45.455Z,10.47
2023-04-03T13:09:15.305Z,10.77
2023-04-03T13:14:21.334Z,11.02
2023-04-03T13:19:29.639Z,11.57
2023-04-03T13:24:35.169Z,10.20
2023-04-03T13:29:39.225Z,10.57
2023-04-03T13:34:47.467Z,10.83
2023-04-03T13:40:03.960Z,10.23
2023-04-03T13:45:29.772Z,10.90
2023-04-03T13:50:32.258Z,10.47
2023-04-03T13:55:37.577Z,10.23
2023-04-03T14:01:01.971Z,12.83
2023-04-03T14:06:06.829Z,10.80
2023-04-03T14:11:35.766Z,11.03
2023-04-03T14:16:42.254Z,9.93
2023-04-03T14:21:44.646Z,9.60
2023-04-03T14:26:47.914Z,9.47
2023-04-03T14:31:57.828Z,8.20
2023-04-03T14:37:10.480Z,8.60
2023-04-03T14:42:20.713Z,8.03
2023-04-03T14:47:31.099Z,8.20
2023-04-03T14:52:37.156Z,7.97
2023-04-03T14:57:40.919Z,7.57
2023-04-03T15:02:43.727Z,7.37
2023-04-03T15:07:51.522Z,6.80
2023-04-03T15:12:54.528Z,6.67
2023-04-03T15:23:34.025Z,8.37
2023-04-03T15:28:40.131Z,7.50
2023-04-03T15:33:42.591Z,7.17
2023-04-03T15:38:45.086Z,10.03
2023-04-03T15:43:47.631Z,10.00
2023-04-03T15:48:50.957Z,8.93
2023-04-03T15:53:53.344Z,8.73
2023-04-03T15:58:55.873Z,9.40
2023-04-03T16:03:58.345Z,9.13
2023-04-03T16:09:02.038Z,8.53
2023-04-03T16:14:04.420Z,10.03
2023-04-03T16:19:07.227Z,10.10
2023-04-03T16:24:10.152Z,10.27
2023-04-03T16:29:12.514Z,11.17
2023-04-03T16:34:15.109Z,10.97
2023-04-03T16:39:17.879Z,11.43
2023-04-03T16:44:20.282Z,14.13
2023-04-03T16:49:22.706Z,14.70
2023-04-03T16:54:25.339Z,16.80
2023-04-03T16:59:27.938Z,19.23
2023-04-03T17:04:30.428Z,18.10
2023-04-03T17:09:34.126Z,18.07
2023-04-03T17:14:36.780Z,17.37
2023-04-03T17:19:39.452Z,16.07
2023-04-03T17:24:44.247Z,12.50
2023-04-03T17:29:46.546Z,13.37
2023-04-03T17:34:49.307Z,11.40
2023-04-03T17:39:51.678Z,9.90
2023-04-03T17:44:54.321Z,11.20
2023-04-03T17:49:56.704Z,11.30
2023-04-03T17:54:59.195Z,11.60
2023-04-03T18:00:03.909Z,10.67
2023-04-03T18:05:17.116Z,10.07
2023-04-03T18:10:20.702Z,9.10
2023-04-03T18:15:27.827Z,9.07
2023-04-03T18:20:33.960Z,9.03
2023-04-03T18:25:38.309Z,8.90
2023-04-03T18:30:42.949Z,9.93
2023-04-03T18:35:45.692Z,10.30
2023-04-03T18:40:50.497Z,8.93
2023-04-03T18:45:56.479Z,10.07
2023-04-03T18:50:58.938Z,11.07
2023-04-03T18:56:04.470Z,10.67
2023-04-03T19:01:20.338Z,10.27
2023-04-03T19:06:24.122Z,10.37
2023-04-03T19:11:29.647Z,10.87
2023-04-03T19:16:34.054Z,9.50
2023-04-03T19:21:41.470Z,10.70
2023-04-03T19:26:44.474Z,9.77
2023-04-03T19:31:46.894Z,9.80
2023-04-03T19:36:52.780Z,8.57
2023-04-03T19:41:56.835Z,10.17
2023-04-03T19:47:00.006Z,10.00
2023-04-03T19:52:02.540Z,9.83
2023-04-03T19:57:05.035Z,9.80
2023-04-03T20:02:11.969Z,8.57
2023-04-03T20:07:21.758Z,9.33
2023-04-03T20:12:27.335Z,9.63
2023-04-03T20:17:33.646Z,9.10
2023-04-03T20:22:37.726Z,9.03
2023-04-03T20:27:40.797Z,8.90
2023-04-03T20:32:48.846Z,8.77
2023-04-03T20:37:51.395Z,9.63
2023-04-03T20:42:55.185Z,9.57
2023-04-03T20:47:57.591Z,10.00
2023-04-03T20:53:00.955Z,9.67
2023-04-03T20:58:03.956Z,9.37
2023-04-03T21:03:06.842Z,9.27
2023-04-03T21:08:46.660Z,10.33
2023-04-03T21:14:31.779Z,8.93
2023-04-03T21:19:34.100Z,9.43
2023-04-03T21:24:36.622Z,9.87
2023-04-03T21:29:39.265Z,8.93
2023-04-03T21:34:41.578Z,11.60
2023-04-03T21:39:44.200Z,9.17
2023-04-03T21:44:50.126Z,10.83
2023-04-03T21:49:52.795Z,9.03
2023-04-03T21:54:55.283Z,10.40
2023-04-03T21:59:57.790Z,9.83
2023-04-03T22:05:00.462Z,10.07
2023-04-03T22:10:03.239Z,11.67
2023-04-03T22:15:06.645Z,10.10
2023-04-03T22:20:09.930Z,11.03
2023-04-03T22:25:12.676Z,10.67
2023-04-03T22:30:15.243Z,10.63
2023-04-03T22:35:17.627Z,9.57
2023-04-03T22:40:19.992Z,9.10
2023-04-03T22:45:22.623Z,10.30
2023-04-03T22:50:25.228Z,10.07
2023-04-03T22:55:27.708Z,9.77
2023-04-03T23:00:30.189Z,9.83
2023-04-03T23:05:32.766Z,10.30
2023-04-03T23:10:35.203Z,10.33
2023-04-03T23:15:37.633Z,10.50
2023-04-03T23:20:40.070Z,9.17
2023-04-03T23:25:42.660Z,9.37
2023-04-03T23:30:46.443Z,10.63
2023-04-03T23:35:49.413Z,9.00
2023-04-03T23:40:51.970Z,10.17
2023-04-03T23:45:54.969Z,9.63
2023-04-03T23:50:57.316Z,9.17
2023-04-03T23:55:59.848Z,9.27
